Terminal Aerodrome Forecast
Issued by NWS New Orleans/Baton Rouge, LA

Home | Current Version | Previous Version | Text Only | Print | Product List | Glossary On
Versions: 1 2 3 4 5 6 7 8 9 10 11 12 13 14 15 16 17 18 19 20 21 22 23 24 25 26 27 28 29 30 31 32
000
FTUS44 KLIX 281729
TAFNEW
TAF
KNEW 281729Z 2818/2918 11007KT P6SM FEW015 SCT110
      TEMPO 2821/2901 2SM TSRA BKN028CB OVC120
     FM290200 09009KT P6SM SCT070 BKN120
     FM291500 06008KT P6SM FEW020 BKN120=

USA.gov is the U.S. government's official web portal to all federal, state and local government web resources and services.